Saturday, August 18, 2018, 1:52 PM EDT
Back to Local

KESN, Easton / Newman Field

Location: Easton, MD, United States Lat: 38.8
Local Time: 1:52 PM EDT (17:52 GMT) Lon: -76.067
Time Zone: US/Eastern Elev: 72 ft

Show me the last for .
Show Decoded

2018-08-18 12:50 METAR KESN 181650Z 27004KT 10SM SCT060 31/23 A2992 =
2018-08-18 11:50 METAR KESN 181550Z 27004KT 10SM SCT085 30/23 A2993 =
2018-08-18 10:50 METAR KESN 181450Z 27005KT 10SM SCT095 29/23 A2995 =
2018-08-18 09:50 METAR KESN 181350Z 30004KT 10SM SCT090 29/23 A2995 =
2018-08-18 08:55 METAR KESN 181255Z 27003KT 10SM SCT120 27/23 A2995 =
2018-08-18 07:50 METAR KESN 181150Z 28003KT 10SM BKN100 27/24 A2996 =
2018-08-18 06:50 METAR KESN 181050Z 30003KT 10SM BKN100 26/24 A2995 =
2018-08-18 05:50 METAR KESN 180950Z 00000KT 10SM BKN090 26/24 A2995 =
2018-08-18 05:36 METAR KESN 180936Z AUTO 26003KT 10SM CLR 27/24 A2995 RMK AO2 T02650238 =
2018-08-18 05:25 METAR KESN 180927Z AUTO 25004KT 10SM CLR 26/24 A2995 RMK AO2 T02640239 =
2018-08-18 05:07 METAR KESN 180907Z AUTO 25003KT 10SM CLR 27/24 A2996 RMK AO2 T02650240 =
2018-08-18 04:47 METAR KESN 180847Z AUTO 00000KT 10SM SCT031 SCT038 27/24 A2996 RMK AO2 T02700241
                 =
2018-08-18 04:26 METAR KESN 180827Z AUTO 29003KT 10SM SCT036 SCT070 27/24 A2997 RMK AO2 T02740242
                 =
2018-08-18 04:07 METAR KESN 180807Z AUTO 28004KT 10SM CLR 27/24 A2997 RMK AO2 T02730240 =
2018-08-18 03:47 METAR KESN 180747Z AUTO 27004KT 10SM CLR 28/24 A2996 RMK AO2 T02750240 =
2018-08-18 03:26 METAR KESN 180727Z AUTO 00000KT 10SM CLR 28/24 A2997 RMK AO2 T02770240 =
2018-08-18 03:07 METAR KESN 180707Z AUTO 00000KT 10SM CLR 28/24 A2997 RMK AO2 T02760241 =
2018-08-18 02:47 METAR KESN 180647Z AUTO 27005KT 10SM CLR 28/24 A2997 RMK AO2 T02810241 =
2018-08-18 02:27 METAR KESN 180627Z AUTO 25006KT 10SM CLR 29/24 A2998 RMK AO2 T02860242 =
2018-08-18 02:07 METAR KESN 180607Z AUTO 25006KT 10SM CLR 29/24 A2998 RMK AO2 T02870244 =
2018-08-18 01:47 METAR KESN 180547Z AUTO 25006KT 10SM CLR 29/25 A2998 RMK AO2 T02880246 =
2018-08-18 01:27 METAR KESN 180527Z AUTO 25006KT 10SM CLR 29/25 A2998 RMK AO2 T02890245 =
2018-08-18 01:07 METAR KESN 180507Z AUTO 24005KT 10SM CLR 29/25 A2999 RMK AO2 T02880250 =
2018-08-18 00:47 METAR KESN 180447Z AUTO 23004KT 10SM CLR 28/25 A2999 RMK AO2 T02820253 =
2018-08-18 00:27 METAR KESN 180427Z AUTO 23003KT 10SM CLR 28/25 A2999 RMK AO2 T02800252 =
2018-08-18 00:07 METAR KESN 180407Z AUTO 23004KT 10SM CLR 28/25 A2998 RMK AO2 T02820252 =
2018-08-17 23:47 METAR KESN 180347Z AUTO 24003KT 10SM CLR 29/25 A2999 RMK AO2 T02850253 =
2018-08-17 23:23 METAR KESN 180327Z AUTO 24005KT 10SM CLR 29/25 A2999 RMK AO2 T02850252 =
2018-08-17 23:07 METAR KESN 180307Z AUTO 23005KT 10SM CLR 29/25 A2999 RMK AO2 T02870253 =
2018-08-17 22:47 METAR KESN 180247Z AUTO 22006KT 10SM CLR 29/26 A2999 RMK AO2 T02930255 =
2018-08-17 22:27 METAR KESN 180227Z AUTO 21006KT 10SM CLR 29/26 A2999 RMK AO2 T02930255 =
2018-08-17 21:45 METAR KESN 180145Z 20005KT 10SM SKC 29/25 A3000 =
2018-08-17 20:45 METAR KESN 180045Z 20006KT 10SM SKC 29/25 A3000 =
2018-08-17 19:50 METAR KESN 172350Z 21007KT 10SM BKN120 30/24 A3000 =
2018-08-17 18:50 METAR KESN 172250Z 20008KT 10SM BKN120 31/24 A3000 =
2018-08-17 17:50 METAR KESN 172150Z 20010G15KT 10SM BKN120 32/24 A3001 =
2018-08-17 16:50 METAR KESN 172050Z 21012G18KT 10SM SKC 33/23 A3002 =

Support USWX by starting your Amazon purchase here.